sensor_id;sensor_type;location;lat;lon;timestamp;P1;durP1;ratioP1;P2;durP2;ratioP2
12052;SDS011;6087;48.982;12.064;2023-02-28T00:00:36;4.47;;;3.23;;
12052;SDS011;6087;48.982;12.064;2023-02-28T00:03:22;3.80;;;3.50;;
12052;SDS011;6087;48.982;12.064;2023-02-28T00:05:49;3.97;;;3.47;;
12052;SDS011;6087;48.982;12.064;2023-02-28T00:08:16;3.63;;;3.33;;
12052;SDS011;6087;48.982;12.064;2023-02-28T00:10:43;3.90;;;3.47;;
12052;SDS011;6087;48.982;12.064;2023-02-28T00:13:10;4.13;;;2.77;;
12052;SDS011;6087;48.982;12.064;2023-02-28T00:15:38;6.87;;;3.07;;
12052;SDS011;6087;48.982;12.064;2023-02-28T00:18:05;3.57;;;3.27;;
12052;SDS011;6087;48.982;12.064;2023-02-28T00:20:33;7.87;;;3.43;;
12052;SDS011;6087;48.982;12.064;2023-02-28T00:23:00;4.50;;;3.17;;
12052;SDS011;6087;48.982;12.064;2023-02-28T00:25:28;4.67;;;3.80;;
12052;SDS011;6087;48.982;12.064;2023-02-28T00:27:55;3.60;;;3.30;;
12052;SDS011;6087;48.982;12.064;2023-02-28T00:30:23;4.67;;;3.53;;
12052;SDS011;6087;48.982;12.064;2023-02-28T00:32:50;3.87;;;3.33;;
12052;SDS011;6087;48.982;12.064;2023-02-28T00:35:17;3.97;;;3.47;;
12052;SDS011;6087;48.982;12.064;2023-02-28T00:37:47;4.17;;;3.50;;
12052;SDS011;6087;48.982;12.064;2023-02-28T00:40:15;3.63;;;3.13;;
12052;SDS011;6087;48.982;12.064;2023-02-28T00:42:42;5.70;;;2.80;;
12052;SDS011;6087;48.982;12.064;2023-02-28T00:45:09;4.03;;;3.50;;
12052;SDS011;6087;48.982;12.064;2023-02-28T00:47:37;3.43;;;3.13;;
12052;SDS011;6087;48.982;12.064;2023-02-28T00:50:04;4.47;;;3.60;;
12052;SDS011;6087;48.982;12.064;2023-02-28T00:52:32;5.60;;;3.70;;
12052;SDS011;6087;48.982;12.064;2023-02-28T00:55:00;6.10;;;4.00;;
12052;SDS011;6087;48.982;12.064;2023-02-28T00:57:27;5.50;;;3.70;;
12052;SDS011;6087;48.982;12.064;2023-02-28T00:59:54;4.70;;;3.70;;
12052;SDS011;6087;48.982;12.064;2023-02-28T01:02:22;4.33;;;3.17;;
12052;SDS011;6087;48.982;12.064;2023-02-28T01:04:49;4.73;;;3.43;;
12052;SDS011;6087;48.982;12.064;2023-02-28T01:07:17;8.00;;;3.73;;
12052;SDS011;6087;48.982;12.064;2023-02-28T01:09:44;5.50;;;4.10;;
12052;SDS011;6087;48.982;12.064;2023-02-28T01:12:12;6.60;;;4.30;;
12052;SDS011;6087;48.982;12.064;2023-02-28T01:14:40;4.47;;;4.07;;
12052;SDS011;6087;48.982;12.064;2023-02-28T01:17:07;4.93;;;3.93;;
12052;SDS011;6087;48.982;12.064;2023-02-28T01:19:35;7.03;;;3.53;;
12052;SDS011;6087;48.982;12.064;2023-02-28T01:22:02;4.37;;;3.97;;
12052;SDS011;6087;48.982;12.064;2023-02-28T01:24:30;5.43;;;3.60;;
12052;SDS011;6087;48.982;12.064;2023-02-28T01:26:58;4.97;;;4.23;;
12052;SDS011;6087;48.982;12.064;2023-02-28T01:29:26;6.43;;;4.03;;
12052;SDS011;6087;48.982;12.064;2023-02-28T01:31:54;3.83;;;3.47;;
12052;SDS011;6087;48.982;12.064;2023-02-28T01:34:22;6.23;;;3.77;;
12052;SDS011;6087;48.982;12.064;2023-02-28T01:36:49;6.23;;;3.90;;
12052;SDS011;6087;48.982;12.064;2023-02-28T01:39:16;7.03;;;3.80;;
12052;SDS011;6087;48.982;12.064;2023-02-28T01:41:43;4.33;;;3.60;;
12052;SDS011;6087;48.982;12.064;2023-02-28T01:47:16;5.17;;;3.63;;
12052;SDS011;6087;48.982;12.064;2023-02-28T01:49:43;4.73;;;3.47;;
12052;SDS011;6087;48.982;12.064;2023-02-28T01:52:11;5.17;;;4.00;;
12052;SDS011;6087;48.982;12.064;2023-02-28T01:54:43;5.73;;;4.30;;
12052;SDS011;6087;48.982;12.064;2023-02-28T01:57:13;4.43;;;3.80;;
12052;SDS011;6087;48.982;12.064;2023-02-28T01:59:45;4.90;;;3.90;;
12052;SDS011;6087;48.982;12.064;2023-02-28T02:02:22;4.20;;;3.70;;
12052;SDS011;6087;48.982;12.064;2023-02-28T02:04:51;5.37;;;4.20;;
12052;SDS011;6087;48.982;12.064;2023-02-28T02:07:21;6.37;;;4.23;;
12052;SDS011;6087;48.982;12.064;2023-02-28T02:09:59;7.57;;;4.37;;
12052;SDS011;6087;48.982;12.064;2023-02-28T02:12:29;4.53;;;4.00;;
12052;SDS011;6087;48.982;12.064;2023-02-28T02:15:06;6.30;;;3.90;;
12052;SDS011;6087;48.982;12.064;2023-02-28T02:17:43;4.90;;;3.73;;
12052;SDS011;6087;48.982;12.064;2023-02-28T02:23:27;4.53;;;3.70;;
12052;SDS011;6087;48.982;12.064;2023-02-28T02:26:38;5.60;;;3.97;;
12052;SDS011;6087;48.982;12.064;2023-02-28T02:29:22;4.27;;;3.70;;
12052;SDS011;6087;48.982;12.064;2023-02-28T02:32:09;5.33;;;4.37;;
12052;SDS011;6087;48.982;12.064;2023-02-28T02:35:04;4.73;;;4.10;;
12052;SDS011;6087;48.982;12.064;2023-02-28T02:37:40;5.40;;;3.60;;
12052;SDS011;6087;48.982;12.064;2023-02-28T02:40:14;5.20;;;3.57;;
12052;SDS011;6087;48.982;12.064;2023-02-28T02:42:48;4.50;;;3.80;;
12052;SDS011;6087;48.982;12.064;2023-02-28T02:45:23;5.37;;;3.67;;
12052;SDS011;6087;48.982;12.064;2023-02-28T02:47:54;6.30;;;4.23;;
12052;SDS011;6087;48.982;12.064;2023-02-28T02:50:27;5.13;;;4.40;;
12052;SDS011;6087;48.982;12.064;2023-02-28T02:52:58;5.40;;;4.30;;
12052;SDS011;6087;48.982;12.064;2023-02-28T02:55:28;5.63;;;4.23;;
12052;SDS011;6087;48.982;12.064;2023-02-28T02:57:58;5.00;;;4.27;;
12052;SDS011;6087;48.982;12.064;2023-02-28T03:00:30;4.93;;;4.23;;
12052;SDS011;6087;48.982;12.064;2023-02-28T03:03:00;5.73;;;4.40;;
12052;SDS011;6087;48.982;12.064;2023-02-28T03:05:31;6.43;;;4.50;;
12052;SDS011;6087;48.982;12.064;2023-02-28T03:08:03;5.20;;;4.47;;
12052;SDS011;6087;48.982;12.064;2023-02-28T03:10:33;7.13;;;5.30;;
12052;SDS011;6087;48.982;12.064;2023-02-28T03:13:09;6.00;;;4.50;;
12052;SDS011;6087;48.982;12.064;2023-02-28T03:15:55;7.30;;;5.30;;
12052;SDS011;6087;48.982;12.064;2023-02-28T03:18:36;5.23;;;3.97;;
12052;SDS011;6087;48.982;12.064;2023-02-28T03:21:14;5.47;;;4.17;;
12052;SDS011;6087;48.982;12.064;2023-02-28T03:23:53;6.23;;;4.80;;
12052;SDS011;6087;48.982;12.064;2023-02-28T03:26:26;5.53;;;4.27;;
12052;SDS011;6087;48.982;12.064;2023-02-28T03:28:55;6.20;;;4.47;;
12052;SDS011;6087;48.982;12.064;2023-02-28T03:31:38;4.90;;;4.30;;
12052;SDS011;6087;48.982;12.064;2023-02-28T03:34:10;5.37;;;4.63;;
12052;SDS011;6087;48.982;12.064;2023-02-28T03:36:47;9.50;;;5.00;;
12052;SDS011;6087;48.982;12.064;2023-02-28T03:39:17;7.30;;;5.10;;
12052;SDS011;6087;48.982;12.064;2023-02-28T03:41:51;6.93;;;4.60;;
12052;SDS011;6087;48.982;12.064;2023-02-28T03:44:24;6.00;;;4.60;;
12052;SDS011;6087;48.982;12.064;2023-02-28T03:46:57;10.70;;;5.60;;
12052;SDS011;6087;48.982;12.064;2023-02-28T03:49:30;6.30;;;4.47;;
12052;SDS011;6087;48.982;12.064;2023-02-28T03:52:03;9.07;;;5.03;;
12052;SDS011;6087;48.982;12.064;2023-02-28T03:54:35;5.77;;;4.67;;
12052;SDS011;6087;48.982;12.064;2023-02-28T03:57:20;8.13;;;5.20;;
12052;SDS011;6087;48.982;12.064;2023-02-28T03:59:54;7.03;;;5.10;;
12052;SDS011;6087;48.982;12.064;2023-02-28T04:02:25;8.87;;;5.70;;
12052;SDS011;6087;48.982;12.064;2023-02-28T04:04:54;7.33;;;5.13;;
12052;SDS011;6087;48.982;12.064;2023-02-28T04:07:23;6.40;;;4.87;;
12052;SDS011;6087;48.982;12.064;2023-02-28T04:09:50;6.23;;;5.33;;
12052;SDS011;6087;48.982;12.064;2023-02-28T04:12:18;7.83;;;5.50;;
12052;SDS011;6087;48.982;12.064;2023-02-28T04:14:48;9.57;;;5.60;;
12052;SDS011;6087;48.982;12.064;2023-02-28T04:17:17;5.93;;;4.63;;
12052;SDS011;6087;48.982;12.064;2023-02-28T04:19:44;6.90;;;5.03;;
12052;SDS011;6087;48.982;12.064;2023-02-28T04:22:12;6.40;;;5.03;;
12052;SDS011;6087;48.982;12.064;2023-02-28T04:24:41;6.17;;;5.27;;
12052;SDS011;6087;48.982;12.064;2023-02-28T04:27:08;6.60;;;4.83;;
12052;SDS011;6087;48.982;12.064;2023-02-28T04:29:35;7.77;;;5.43;;
12052;SDS011;6087;48.982;12.064;2023-02-28T04:32:09;7.23;;;5.07;;
12052;SDS011;6087;48.982;12.064;2023-02-28T04:34:37;6.97;;;5.63;;
12052;SDS011;6087;48.982;12.064;2023-02-28T04:37:04;5.83;;;4.67;;
12052;SDS011;6087;48.982;12.064;2023-02-28T04:39:34;9.63;;;5.80;;
12052;SDS011;6087;48.982;12.064;2023-02-28T04:42:04;7.50;;;5.60;;
12052;SDS011;6087;48.982;12.064;2023-02-28T04:44:31;6.73;;;4.80;;
12052;SDS011;6087;48.982;12.064;2023-02-28T04:46:58;7.47;;;5.37;;
12052;SDS011;6087;48.982;12.064;2023-02-28T04:49:25;10.33;;;5.53;;
12052;SDS011;6087;48.982;12.064;2023-02-28T04:51:53;5.93;;;4.57;;
12052;SDS011;6087;48.982;12.064;2023-02-28T04:54:20;7.30;;;5.20;;
12052;SDS011;6087;48.982;12.064;2023-02-28T04:56:48;7.73;;;5.73;;
12052;SDS011;6087;48.982;12.064;2023-02-28T04:59:16;6.93;;;4.83;;
12052;SDS011;6087;48.982;12.064;2023-02-28T05:01:45;9.40;;;6.20;;
12052;SDS011;6087;48.982;12.064;2023-02-28T05:04:14;8.13;;;5.73;;
12052;SDS011;6087;48.982;12.064;2023-02-28T05:06:41;7.37;;;5.40;;
12052;SDS011;6087;48.982;12.064;2023-02-28T05:09:08;6.10;;;5.50;;
12052;SDS011;6087;48.982;12.064;2023-02-28T05:11:40;7.80;;;5.47;;
12052;SDS011;6087;48.982;12.064;2023-02-28T05:14:12;7.50;;;5.40;;
12052;SDS011;6087;48.982;12.064;2023-02-28T05:16:44;8.20;;;5.40;;
12052;SDS011;6087;48.982;12.064;2023-02-28T05:19:11;8.93;;;6.53;;
12052;SDS011;6087;48.982;12.064;2023-02-28T05:21:39;10.47;;;6.23;;
12052;SDS011;6087;48.982;12.064;2023-02-28T05:24:08;6.90;;;5.90;;
12052;SDS011;6087;48.982;12.064;2023-02-28T05:26:39;10.07;;;6.30;;
12052;SDS011;6087;48.982;12.064;2023-02-28T05:29:08;8.43;;;5.77;;
12052;SDS011;6087;48.982;12.064;2023-02-28T05:31:37;8.17;;;5.90;;
12052;SDS011;6087;48.982;12.064;2023-02-28T05:34:04;10.50;;;6.10;;
12052;SDS011;6087;48.982;12.064;2023-02-28T05:36:32;8.83;;;6.00;;
12052;SDS011;6087;48.982;12.064;2023-02-28T05:38:59;8.70;;;5.63;;
12052;SDS011;6087;48.982;12.064;2023-02-28T05:41:28;6.73;;;5.37;;
12052;SDS011;6087;48.982;12.064;2023-02-28T05:43:58;10.23;;;5.90;;
12052;SDS011;6087;48.982;12.064;2023-02-28T05:46:26;8.63;;;5.87;;
12052;SDS011;6087;48.982;12.064;2023-02-28T05:48:55;8.07;;;6.03;;
12052;SDS011;6087;48.982;12.064;2023-02-28T05:51:25;9.27;;;6.77;;
12052;SDS011;6087;48.982;12.064;2023-02-28T05:53:52;9.00;;;6.30;;
12052;SDS011;6087;48.982;12.064;2023-02-28T05:56:25;6.57;;;5.93;;
12052;SDS011;6087;48.982;12.064;2023-02-28T05:58:55;9.37;;;6.03;;
12052;SDS011;6087;48.982;12.064;2023-02-28T06:01:30;11.63;;;6.50;;
12052;SDS011;6087;48.982;12.064;2023-02-28T06:04:01;8.50;;;5.97;;
12052;SDS011;6087;48.982;12.064;2023-02-28T06:06:29;9.33;;;7.00;;
12052;SDS011;6087;48.982;12.064;2023-02-28T06:08:59;10.50;;;6.80;;
12052;SDS011;6087;48.982;12.064;2023-02-28T06:11:29;9.63;;;7.67;;
12052;SDS011;6087;48.982;12.064;2023-02-28T06:13:57;14.30;;;8.20;;
12052;SDS011;6087;48.982;12.064;2023-02-28T06:16:26;11.33;;;6.83;;
12052;SDS011;6087;48.982;12.064;2023-02-28T06:18:59;9.83;;;7.23;;
12052;SDS011;6087;48.982;12.064;2023-02-28T06:21:30;11.87;;;7.67;;
12052;SDS011;6087;48.982;12.064;2023-02-28T06:23:57;9.90;;;7.13;;
12052;SDS011;6087;48.982;12.064;2023-02-28T06:26:25;8.50;;;6.57;;
12052;SDS011;6087;48.982;12.064;2023-02-28T06:28:52;9.37;;;6.53;;
12052;SDS011;6087;48.982;12.064;2023-02-28T06:31:20;8.77;;;6.77;;
12052;SDS011;6087;48.982;12.064;2023-02-28T06:33:49;8.40;;;5.83;;
12052;SDS011;6087;48.982;12.064;2023-02-28T06:36:18;9.10;;;6.33;;
12052;SDS011;6087;48.982;12.064;2023-02-28T06:38:45;8.57;;;6.07;;
12052;SDS011;6087;48.982;12.064;2023-02-28T06:41:16;7.23;;;5.83;;
12052;SDS011;6087;48.982;12.064;2023-02-28T06:43:43;8.80;;;5.87;;
12052;SDS011;6087;48.982;12.064;2023-02-28T06:46:11;9.70;;;6.37;;
12052;SDS011;6087;48.982;12.064;2023-02-28T06:48:43;9.07;;;6.00;;
12052;SDS011;6087;48.982;12.064;2023-02-28T06:51:12;11.40;;;6.13;;
12052;SDS011;6087;48.982;12.064;2023-02-28T06:53:41;9.23;;;5.93;;
12052;SDS011;6087;48.982;12.064;2023-02-28T06:56:09;7.77;;;5.97;;
12052;SDS011;6087;48.982;12.064;2023-02-28T06:58:38;7.73;;;5.90;;
12052;SDS011;6087;48.982;12.064;2023-02-28T07:01:06;7.97;;;5.83;;
12052;SDS011;6087;48.982;12.064;2023-02-28T07:03:34;11.30;;;6.37;;
12052;SDS011;6087;48.982;12.064;2023-02-28T07:06:02;6.00;;;5.27;;
12052;SDS011;6087;48.982;12.064;2023-02-28T07:08:30;8.40;;;6.30;;
12052;SDS011;6087;48.982;12.064;2023-02-28T07:10:59;10.53;;;6.27;;
12052;SDS011;6087;48.982;12.064;2023-02-28T07:13:26;9.30;;;6.00;;
12052;SDS011;6087;48.982;12.064;2023-02-28T07:15:54;10.20;;;5.70;;
12052;SDS011;6087;48.982;12.064;2023-02-28T07:18:21;8.40;;;6.33;;
12052;SDS011;6087;48.982;12.064;2023-02-28T07:20:48;11.13;;;5.83;;
12052;SDS011;6087;48.982;12.064;2023-02-28T07:23:19;6.70;;;5.43;;
12052;SDS011;6087;48.982;12.064;2023-02-28T07:25:47;9.00;;;4.97;;
12052;SDS011;6087;48.982;12.064;2023-02-28T07:28:16;10.23;;;5.57;;
12052;SDS011;6087;48.982;12.064;2023-02-28T07:30:43;9.70;;;4.97;;
12052;SDS011;6087;48.982;12.064;2023-02-28T07:33:11;9.10;;;5.53;;
12052;SDS011;6087;48.982;12.064;2023-02-28T07:35:38;8.70;;;5.40;;
12052;SDS011;6087;48.982;12.064;2023-02-28T07:38:05;8.17;;;5.80;;
12052;SDS011;6087;48.982;12.064;2023-02-28T07:40:33;7.83;;;6.03;;
12052;SDS011;6087;48.982;12.064;2023-02-28T07:43:01;9.67;;;6.37;;
12052;SDS011;6087;48.982;12.064;2023-02-28T07:45:30;10.93;;;5.73;;
12052;SDS011;6087;48.982;12.064;2023-02-28T07:47:59;10.80;;;5.43;;
12052;SDS011;6087;48.982;12.064;2023-02-28T07:50:27;10.77;;;5.30;;
12052;SDS011;6087;48.982;12.064;2023-02-28T07:52:55;8.33;;;5.77;;
12052;SDS011;6087;48.982;12.064;2023-02-28T07:55:23;7.13;;;6.03;;
12052;SDS011;6087;48.982;12.064;2023-02-28T07:57:50;9.70;;;5.70;;
12052;SDS011;6087;48.982;12.064;2023-02-28T08:00:17;8.57;;;5.67;;
12052;SDS011;6087;48.982;12.064;2023-02-28T08:02:46;9.30;;;5.60;;
12052;SDS011;6087;48.982;12.064;2023-02-28T08:05:13;8.30;;;5.87;;
12052;SDS011;6087;48.982;12.064;2023-02-28T08:07:40;12.63;;;6.10;;
12052;SDS011;6087;48.982;12.064;2023-02-28T08:10:08;7.40;;;5.27;;
12052;SDS011;6087;48.982;12.064;2023-02-28T08:12:36;9.23;;;5.60;;
12052;SDS011;6087;48.982;12.064;2023-02-28T08:15:03;10.13;;;5.00;;
12052;SDS011;6087;48.982;12.064;2023-02-28T08:17:30;7.67;;;5.23;;
12052;SDS011;6087;48.982;12.064;2023-02-28T08:19:59;10.73;;;4.97;;
12052;SDS011;6087;48.982;12.064;2023-02-28T08:22:26;10.10;;;6.10;;
12052;SDS011;6087;48.982;12.064;2023-02-28T08:24:53;6.73;;;5.43;;
12052;SDS011;6087;48.982;12.064;2023-02-28T08:27:21;9.80;;;5.33;;
12052;SDS011;6087;48.982;12.064;2023-02-28T08:29:48;7.97;;;5.10;;
12052;SDS011;6087;48.982;12.064;2023-02-28T08:32:15;6.87;;;5.43;;
12052;SDS011;6087;48.982;12.064;2023-02-28T08:34:42;9.73;;;5.87;;
12052;SDS011;6087;48.982;12.064;2023-02-28T08:37:10;6.53;;;5.57;;
12052;SDS011;6087;48.982;12.064;2023-02-28T08:39:38;6.23;;;5.10;;
12052;SDS011;6087;48.982;12.064;2023-02-28T08:42:05;9.40;;;5.37;;
12052;SDS011;6087;48.982;12.064;2023-02-28T08:44:32;8.23;;;6.13;;
12052;SDS011;6087;48.982;12.064;2023-02-28T08:46:59;11.20;;;5.87;;
12052;SDS011;6087;48.982;12.064;2023-02-28T08:49:27;8.53;;;6.13;;
12052;SDS011;6087;48.982;12.064;2023-02-28T08:51:54;7.80;;;5.27;;
12052;SDS011;6087;48.982;12.064;2023-02-28T08:54:23;9.57;;;5.27;;
12052;SDS011;6087;48.982;12.064;2023-02-28T08:56:51;8.03;;;5.27;;
12052;SDS011;6087;48.982;12.064;2023-02-28T08:59:18;9.57;;;5.90;;
12052;SDS011;6087;48.982;12.064;2023-02-28T09:01:45;13.93;;;7.10;;
12052;SDS011;6087;48.982;12.064;2023-02-28T09:04:15;9.00;;;5.83;;
12052;SDS011;6087;48.982;12.064;2023-02-28T09:06:42;10.67;;;6.00;;
12052;SDS011;6087;48.982;12.064;2023-02-28T09:09:13;8.30;;;5.73;;
12052;SDS011;6087;48.982;12.064;2023-02-28T09:11:47;8.17;;;6.27;;
12052;SDS011;6087;48.982;12.064;2023-02-28T09:14:14;6.87;;;6.13;;
12052;SDS011;6087;48.982;12.064;2023-02-28T09:16:42;10.27;;;5.80;;
12052;SDS011;6087;48.982;12.064;2023-02-28T09:19:10;7.30;;;5.67;;
12052;SDS011;6087;48.982;12.064;2023-02-28T09:21:37;7.30;;;6.20;;
12052;SDS011;6087;48.982;12.064;2023-02-28T09:24:05;7.77;;;6.23;;
12052;SDS011;6087;48.982;12.064;2023-02-28T09:26:32;10.40;;;6.60;;
12052;SDS011;6087;48.982;12.064;2023-02-28T09:29:01;9.93;;;6.57;;
12052;SDS011;6087;48.982;12.064;2023-02-28T09:31:29;9.97;;;6.60;;
12052;SDS011;6087;48.982;12.064;2023-02-28T09:33:56;8.33;;;5.67;;
12052;SDS011;6087;48.982;12.064;2023-02-28T09:36:25;9.87;;;6.07;;
12052;SDS011;6087;48.982;12.064;2023-02-28T09:38:53;9.30;;;6.43;;
12052;SDS011;6087;48.982;12.064;2023-02-28T09:41:26;8.00;;;5.97;;
12052;SDS011;6087;48.982;12.064;2023-02-28T09:44:18;9.17;;;6.27;;
12052;SDS011;6087;48.982;12.064;2023-02-28T09:46:51;10.30;;;6.60;;
12052;SDS011;6087;48.982;12.064;2023-02-28T09:49:22;8.80;;;6.53;;
12052;SDS011;6087;48.982;12.064;2023-02-28T09:51:55;8.60;;;6.10;;
12052;SDS011;6087;48.982;12.064;2023-02-28T09:54:27;9.63;;;6.37;;
12052;SDS011;6087;48.982;12.064;2023-02-28T09:56:56;7.20;;;5.73;;
12052;SDS011;6087;48.982;12.064;2023-02-28T09:59:36;10.47;;;6.37;;
12052;SDS011;6087;48.982;12.064;2023-02-28T10:02:13;10.77;;;6.20;;
12052;SDS011;6087;48.982;12.064;2023-02-28T10:04:50;9.33;;;5.83;;
12052;SDS011;6087;48.982;12.064;2023-02-28T10:07:30;10.27;;;6.60;;
12052;SDS011;6087;48.982;12.064;2023-02-28T10:10:14;8.40;;;6.13;;
12052;SDS011;6087;48.982;12.064;2023-02-28T10:12:55;7.63;;;5.70;;
12052;SDS011;6087;48.982;12.064;2023-02-28T10:15:27;9.33;;;6.37;;
12052;SDS011;6087;48.982;12.064;2023-02-28T10:17:57;10.43;;;6.27;;
12052;SDS011;6087;48.982;12.064;2023-02-28T10:20:26;9.43;;;6.17;;
12052;SDS011;6087;48.982;12.064;2023-02-28T10:22:58;8.93;;;5.60;;
12052;SDS011;6087;48.982;12.064;2023-02-28T10:25:32;10.13;;;5.97;;
12052;SDS011;6087;48.982;12.064;2023-02-28T10:28:04;10.27;;;6.37;;
12052;SDS011;6087;48.982;12.064;2023-02-28T10:30:39;7.80;;;6.00;;
12052;SDS011;6087;48.982;12.064;2023-02-28T10:33:12;9.53;;;6.33;;
12052;SDS011;6087;48.982;12.064;2023-02-28T10:35:45;6.47;;;5.80;;
12052;SDS011;6087;48.982;12.064;2023-02-28T10:38:14;7.60;;;6.20;;
12052;SDS011;6087;48.982;12.064;2023-02-28T10:40:44;8.00;;;5.97;;
12052;SDS011;6087;48.982;12.064;2023-02-28T10:43:21;10.40;;;6.50;;
12052;SDS011;6087;48.982;12.064;2023-02-28T10:45:55;7.47;;;5.97;;
12052;SDS011;6087;48.982;12.064;2023-02-28T10:48:34;7.43;;;6.27;;
12052;SDS011;6087;48.982;12.064;2023-02-28T10:51:04;9.27;;;6.63;;
12052;SDS011;6087;48.982;12.064;2023-02-28T10:53:35;9.40;;;6.40;;
12052;SDS011;6087;48.982;12.064;2023-02-28T10:56:12;7.83;;;6.93;;
12052;SDS011;6087;48.982;12.064;2023-02-28T10:58:46;9.77;;;6.13;;
12052;SDS011;6087;48.982;12.064;2023-02-28T11:01:17;9.33;;;6.53;;
12052;SDS011;6087;48.982;12.064;2023-02-28T11:03:46;7.70;;;5.57;;
12052;SDS011;6087;48.982;12.064;2023-02-28T11:06:15;8.80;;;6.27;;
12052;SDS011;6087;48.982;12.064;2023-02-28T11:08:46;7.53;;;5.57;;
12052;SDS011;6087;48.982;12.064;2023-02-28T11:11:14;8.27;;;6.40;;
12052;SDS011;6087;48.982;12.064;2023-02-28T11:13:43;10.50;;;6.60;;
12052;SDS011;6087;48.982;12.064;2023-02-28T11:16:13;8.10;;;6.30;;
12052;SDS011;6087;48.982;12.064;2023-02-28T11:18:44;9.73;;;6.73;;
12052;SDS011;6087;48.982;12.064;2023-02-28T11:21:15;9.03;;;6.77;;
12052;SDS011;6087;48.982;12.064;2023-02-28T11:23:46;7.93;;;6.13;;
12052;SDS011;6087;48.982;12.064;2023-02-28T11:26:15;10.20;;;7.00;;
12052;SDS011;6087;48.982;12.064;2023-02-28T11:29:03;10.13;;;7.10;;
12052;SDS011;6087;48.982;12.064;2023-02-28T11:31:37;7.83;;;5.80;;
12052;SDS011;6087;48.982;12.064;2023-02-28T11:36:53;8.97;;;6.50;;
12052;SDS011;6087;48.982;12.064;2023-02-28T11:39:22;7.37;;;5.90;;
12052;SDS011;6087;48.982;12.064;2023-02-28T11:41:54;8.63;;;5.97;;
12052;SDS011;6087;48.982;12.064;2023-02-28T11:44:32;8.33;;;6.70;;
12052;SDS011;6087;48.982;12.064;2023-02-28T11:47:12;7.83;;;6.20;;
12052;SDS011;6087;48.982;12.064;2023-02-28T11:49:47;9.93;;;6.47;;
12052;SDS011;6087;48.982;12.064;2023-02-28T11:52:25;7.77;;;6.53;;
12052;SDS011;6087;48.982;12.064;2023-02-28T11:55:08;7.90;;;6.43;;
12052;SDS011;6087;48.982;12.064;2023-02-28T11:57:47;9.40;;;6.67;;
12052;SDS011;6087;48.982;12.064;2023-02-28T12:00:35;10.27;;;7.27;;
12052;SDS011;6087;48.982;12.064;2023-02-28T12:03:23;10.27;;;6.87;;
12052;SDS011;6087;48.982;12.064;2023-02-28T12:06:01;7.47;;;6.50;;
12052;SDS011;6087;48.982;12.064;2023-02-28T12:08:41;8.53;;;6.60;;
12052;SDS011;6087;48.982;12.064;2023-02-28T12:11:15;10.33;;;6.90;;
12052;SDS011;6087;48.982;12.064;2023-02-28T12:13:52;9.33;;;7.60;;
12052;SDS011;6087;48.982;12.064;2023-02-28T12:16:37;8.37;;;7.23;;
12052;SDS011;6087;48.982;12.064;2023-02-28T12:19:17;12.00;;;6.37;;
12052;SDS011;6087;48.982;12.064;2023-02-28T12:28:14;8.20;;;6.33;;
12052;SDS011;6087;48.982;12.064;2023-02-28T12:30:51;9.47;;;6.60;;
12052;SDS011;6087;48.982;12.064;2023-02-28T12:33:24;10.30;;;7.70;;
12052;SDS011;6087;48.982;12.064;2023-02-28T12:35:59;10.53;;;7.40;;
12052;SDS011;6087;48.982;12.064;2023-02-28T12:38:31;8.50;;;7.30;;
12052;SDS011;6087;48.982;12.064;2023-02-28T12:41:08;9.37;;;7.37;;
12052;SDS011;6087;48.982;12.064;2023-02-28T12:43:40;10.20;;;7.10;;
12052;SDS011;6087;48.982;12.064;2023-02-28T12:46:12;9.33;;;7.17;;
12052;SDS011;6087;48.982;12.064;2023-02-28T12:48:45;11.10;;;7.20;;
12052;SDS011;6087;48.982;12.064;2023-02-28T12:51:16;9.70;;;7.60;;
12052;SDS011;6087;48.982;12.064;2023-02-28T12:53:50;10.32;;;7.57;;
12052;SDS011;6087;48.982;12.064;2023-02-28T12:56:29;9.07;;;7.40;;
12052;SDS011;6087;48.982;12.064;2023-02-28T12:59:04;7.68;;;6.90;;
12052;SDS011;6087;48.982;12.064;2023-02-28T13:01:55;7.63;;;6.60;;
12052;SDS011;6087;48.982;12.064;2023-02-28T13:04:42;8.57;;;7.05;;
12052;SDS011;6087;48.982;12.064;2023-02-28T13:07:35;8.27;;;6.63;;
12052;SDS011;6087;48.982;12.064;2023-02-28T13:10:22;7.82;;;7.10;;
12052;SDS011;6087;48.982;12.064;2023-02-28T13:12:52;7.80;;;6.80;;
12052;SDS011;6087;48.982;12.064;2023-02-28T13:15:22;9.00;;;7.28;;
12052;SDS011;6087;48.982;12.064;2023-02-28T13:17:54;9.32;;;7.32;;
12052;SDS011;6087;48.982;12.064;2023-02-28T13:20:24;7.03;;;6.43;;
12052;SDS011;6087;48.982;12.064;2023-02-28T13:22:53;7.05;;;6.45;;
12052;SDS011;6087;48.982;12.064;2023-02-28T13:34:39;6.40;;;5.80;;
12052;SDS011;6087;48.982;12.064;2023-02-28T13:37:34;7.13;;;6.53;;
12052;SDS011;6087;48.982;12.064;2023-02-28T13:40:22;6.57;;;5.97;;
12052;SDS011;6087;48.982;12.064;2023-02-28T13:43:01;9.65;;;5.75;;
12052;SDS011;6087;48.982;12.064;2023-02-28T13:45:30;8.93;;;6.63;;
12052;SDS011;6087;48.982;12.064;2023-02-28T13:48:03;8.68;;;7.05;;
12052;SDS011;6087;48.982;12.064;2023-02-28T13:50:42;7.53;;;6.82;;
12052;SDS011;6087;48.982;12.064;2023-02-28T13:53:20;7.80;;;7.00;;
12052;SDS011;6087;48.982;12.064;2023-02-28T13:56:19;7.80;;;6.85;;
12052;SDS011;6087;48.982;12.064;2023-02-28T13:58:54;6.72;;;6.10;;
12052;SDS011;6087;48.982;12.064;2023-02-28T14:01:29;9.32;;;7.70;;
12052;SDS011;6087;48.982;12.064;2023-02-28T14:04:17;6.65;;;6.05;;
12052;SDS011;6087;48.982;12.064;2023-02-28T14:07:09;6.53;;;5.93;;
12052;SDS011;6087;48.982;12.064;2023-02-28T14:09:45;7.35;;;6.65;;
12052;SDS011;6087;48.982;12.064;2023-02-28T14:15:28;6.85;;;6.22;;
12052;SDS011;6087;48.982;12.064;2023-02-28T14:18:05;6.50;;;5.90;;
12052;SDS011;6087;48.982;12.064;2023-02-28T14:20:41;7.63;;;6.15;;
12052;SDS011;6087;48.982;12.064;2023-02-28T14:23:12;6.97;;;6.10;;
12052;SDS011;6087;48.982;12.064;2023-02-28T14:25:48;7.57;;;6.50;;
12052;SDS011;6087;48.982;12.064;2023-02-28T14:28:25;9.43;;;7.15;;
12052;SDS011;6087;48.982;12.064;2023-02-28T14:31:08;7.10;;;6.32;;
12052;SDS011;6087;48.982;12.064;2023-02-28T14:33:42;7.25;;;6.53;;
12052;SDS011;6087;48.982;12.064;2023-02-28T14:36:25;7.07;;;6.43;;
12052;SDS011;6087;48.982;12.064;2023-02-28T14:38:59;7.32;;;6.55;;
12052;SDS011;6087;48.982;12.064;2023-02-28T14:41:43;7.53;;;6.82;;
12052;SDS011;6087;48.982;12.064;2023-02-28T14:44:14;7.88;;;7.15;;
12052;SDS011;6087;48.982;12.064;2023-02-28T14:46:44;7.47;;;6.63;;
12052;SDS011;6087;48.982;12.064;2023-02-28T14:49:21;7.70;;;7.00;;
12052;SDS011;6087;48.982;12.064;2023-02-28T14:52:01;8.43;;;7.60;;
12052;SDS011;6087;48.982;12.064;2023-02-28T14:54:36;8.23;;;7.45;;
12052;SDS011;6087;48.982;12.064;2023-02-28T14:57:03;10.68;;;7.97;;
12052;SDS011;6087;48.982;12.064;2023-02-28T14:59:31;10.95;;;7.28;;
12052;SDS011;6087;48.982;12.064;2023-02-28T15:04:52;8.75;;;7.38;;
12052;SDS011;6087;48.982;12.064;2023-02-28T15:07:23;7.50;;;6.72;;
12052;SDS011;6087;48.982;12.064;2023-02-28T15:10:15;9.73;;;7.25;;
12052;SDS011;6087;48.982;12.064;2023-02-28T15:12:46;8.93;;;7.25;;
12052;SDS011;6087;48.982;12.064;2023-02-28T15:15:22;8.82;;;7.75;;
12052;SDS011;6087;48.982;12.064;2023-02-28T15:17:53;9.80;;;8.05;;
12052;SDS011;6087;48.982;12.064;2023-02-28T15:20:23;7.43;;;6.63;;
12052;SDS011;6087;48.982;12.064;2023-02-28T15:22:52;8.18;;;6.85;;
12052;SDS011;6087;48.982;12.064;2023-02-28T15:25:23;9.30;;;8.40;;
12052;SDS011;6087;48.982;12.064;2023-02-28T15:27:52;8.43;;;7.43;;
12052;SDS011;6087;48.982;12.064;2023-02-28T15:30:23;7.95;;;7.15;;
12052;SDS011;6087;48.982;12.064;2023-02-28T15:33:02;10.00;;;7.13;;
12052;SDS011;6087;48.982;12.064;2023-02-28T15:35:43;12.25;;;7.30;;
12052;SDS011;6087;48.982;12.064;2023-02-28T15:38:14;9.95;;;7.45;;
12052;SDS011;6087;48.982;12.064;2023-02-28T15:40:45;8.43;;;7.50;;
12052;SDS011;6087;48.982;12.064;2023-02-28T15:43:18;12.50;;;7.43;;